sensor_id;sensor_type;location;lat;lon;timestamp;temperature;humidity
53782;DHT22;39692;53.114;7.060;2022-08-19T00:00:18;16.50;99.90
53782;DHT22;39692;53.114;7.060;2022-08-19T00:02:44;16.50;99.90
53782;DHT22;39692;53.114;7.060;2022-08-19T00:05:12;16.40;99.90
53782;DHT22;39692;53.114;7.060;2022-08-19T00:07:38;16.50;99.90
53782;DHT22;39692;53.114;7.060;2022-08-19T00:10:06;16.50;99.90
53782;DHT22;39692;53.114;7.060;2022-08-19T00:12:33;16.40;99.90
53782;DHT22;39692;53.114;7.060;2022-08-19T00:14:59;16.30;99.90
53782;DHT22;39692;53.114;7.060;2022-08-19T00:17:25;16.30;99.90
53782;DHT22;39692;53.114;7.060;2022-08-19T00:19:51;16.30;99.90
53782;DHT22;39692;53.114;7.060;2022-08-19T00:22:17;16.30;99.90
53782;DHT22;39692;53.114;7.060;2022-08-19T00:24:44;16.30;99.90
53782;DHT22;39692;53.114;7.060;2022-08-19T00:27:11;16.20;99.90
53782;DHT22;39692;53.114;7.060;2022-08-19T00:29:37;16.10;99.90
53782;DHT22;39692;53.114;7.060;2022-08-19T00:32:03;16.20;99.90
53782;DHT22;39692;53.114;7.060;2022-08-19T00:34:29;16.10;99.90
53782;DHT22;39692;53.114;7.060;2022-08-19T00:36:55;16.10;99.90
53782;DHT22;39692;53.114;7.060;2022-08-19T01:16:10;15.80;99.90
53782;DHT22;39692;53.114;7.060;2022-08-19T01:18:40;15.80;99.90
53782;DHT22;39692;53.114;7.060;2022-08-19T01:21:16;15.70;99.90
53782;DHT22;39692;53.114;7.060;2022-08-19T01:23:44;15.50;99.90
53782;DHT22;39692;53.114;7.060;2022-08-19T01:26:14;15.50;99.90
53782;DHT22;39692;53.114;7.060;2022-08-19T01:28:40;15.40;99.90
53782;DHT22;39692;53.114;7.060;2022-08-19T01:31:08;15.40;99.90
53782;DHT22;39692;53.114;7.060;2022-08-19T01:33:37;15.40;99.90
53782;DHT22;39692;53.114;7.060;2022-08-19T01:36:12;15.40;99.90
53782;DHT22;39692;53.114;7.060;2022-08-19T01:38:40;15.40;99.90
53782;DHT22;39692;53.114;7.060;2022-08-19T01:41:06;15.40;99.90
53782;DHT22;39692;53.114;7.060;2022-08-19T01:43:33;15.30;99.90
53782;DHT22;39692;53.114;7.060;2022-08-19T01:45:58;15.30;99.90
53782;DHT22;39692;53.114;7.060;2022-08-19T01:48:24;15.30;99.90
53782;DHT22;39692;53.114;7.060;2022-08-19T01:50:50;15.30;99.90
53782;DHT22;39692;53.114;7.060;2022-08-19T01:53:16;15.30;99.90
53782;DHT22;39692;53.114;7.060;2022-08-19T01:55:43;15.20;99.90
53782;DHT22;39692;53.114;7.060;2022-08-19T01:58:18;15.20;99.90
53782;DHT22;39692;53.114;7.060;2022-08-19T02:00:44;15.20;99.90
53782;DHT22;39692;53.114;7.060;2022-08-19T02:03:11;15.10;99.90
53782;DHT22;39692;53.114;7.060;2022-08-19T02:05:38;15.20;99.90
53782;DHT22;39692;53.114;7.060;2022-08-19T02:08:04;15.20;99.90
53782;DHT22;39692;53.114;7.060;2022-08-19T02:10:30;15.20;99.90
53782;DHT22;39692;53.114;7.060;2022-08-19T02:12:57;15.20;99.90
53782;DHT22;39692;53.114;7.060;2022-08-19T02:15:23;15.20;99.90
53782;DHT22;39692;53.114;7.060;2022-08-19T02:17:49;15.20;99.90
53782;DHT22;39692;53.114;7.060;2022-08-19T02:20:15;15.20;99.90
53782;DHT22;39692;53.114;7.060;2022-08-19T02:22:42;15.10;99.90
53782;DHT22;39692;53.114;7.060;2022-08-19T02:25:12;15.10;99.90
53782;DHT22;39692;53.114;7.060;2022-08-19T02:27:39;15.00;99.90
53782;DHT22;39692;53.114;7.060;2022-08-19T02:30:07;15.00;99.90
53782;DHT22;39692;53.114;7.060;2022-08-19T02:32:33;14.90;99.90
53782;DHT22;39692;53.114;7.060;2022-08-19T02:34:58;14.80;99.90
53782;DHT22;39692;53.114;7.060;2022-08-19T02:37:24;14.80;99.90
53782;DHT22;39692;53.114;7.060;2022-08-19T02:40:09;14.70;99.90
53782;DHT22;39692;53.114;7.060;2022-08-19T02:42:35;14.70;99.90
53782;DHT22;39692;53.114;7.060;2022-08-19T02:45:00;14.80;99.90
53782;DHT22;39692;53.114;7.060;2022-08-19T02:47:26;14.80;99.90
53782;DHT22;39692;53.114;7.060;2022-08-19T02:49:52;14.90;99.90
53782;DHT22;39692;53.114;7.060;2022-08-19T02:52:17;14.90;99.90
53782;DHT22;39692;53.114;7.060;2022-08-19T02:54:43;15.00;99.90
53782;DHT22;39692;53.114;7.060;2022-08-19T02:57:09;14.90;99.90
53782;DHT22;39692;53.114;7.060;2022-08-19T02:59:35;14.90;99.90
53782;DHT22;39692;53.114;7.060;2022-08-19T03:02:01;14.90;99.90
53782;DHT22;39692;53.114;7.060;2022-08-19T03:04:27;14.90;99.90
53782;DHT22;39692;53.114;7.060;2022-08-19T03:06:52;14.90;99.90
53782;DHT22;39692;53.114;7.060;2022-08-19T03:09:20;14.90;99.90
53782;DHT22;39692;53.114;7.060;2022-08-19T03:11:45;14.90;99.90
53782;DHT22;39692;53.114;7.060;2022-08-19T03:14:12;15.00;99.90
53782;DHT22;39692;53.114;7.060;2022-08-19T03:16:47;15.00;99.90
53782;DHT22;39692;53.114;7.060;2022-08-19T03:19:15;15.00;99.90
53782;DHT22;39692;53.114;7.060;2022-08-19T03:21:42;15.10;99.90
53782;DHT22;39692;53.114;7.060;2022-08-19T03:24:10;15.00;99.90
53782;DHT22;39692;53.114;7.060;2022-08-19T03:26:46;15.00;99.90
53782;DHT22;39692;53.114;7.060;2022-08-19T03:29:13;15.00;99.90
53782;DHT22;39692;53.114;7.060;2022-08-19T03:31:40;15.00;99.90
53782;DHT22;39692;53.114;7.060;2022-08-19T03:34:06;15.00;99.90
53782;DHT22;39692;53.114;7.060;2022-08-19T03:36:32;14.90;99.90
53782;DHT22;39692;53.114;7.060;2022-08-19T03:39:00;14.90;99.90
53782;DHT22;39692;53.114;7.060;2022-08-19T03:41:28;14.80;99.90
53782;DHT22;39692;53.114;7.060;2022-08-19T03:43:56;14.80;99.90
53782;DHT22;39692;53.114;7.060;2022-08-19T03:46:28;14.70;99.90
53782;DHT22;39692;53.114;7.060;2022-08-19T03:48:56;14.70;99.90
53782;DHT22;39692;53.114;7.060;2022-08-19T03:51:28;14.70;99.90
53782;DHT22;39692;53.114;7.060;2022-08-19T03:53:58;14.70;99.90
53782;DHT22;39692;53.114;7.060;2022-08-19T03:56:25;14.70;99.90
53782;DHT22;39692;53.114;7.060;2022-08-19T03:58:51;14.80;99.90
53782;DHT22;39692;53.114;7.060;2022-08-19T04:01:21;14.80;99.90
53782;DHT22;39692;53.114;7.060;2022-08-19T04:03:47;14.90;99.90
53782;DHT22;39692;53.114;7.060;2022-08-19T04:06:25;14.90;99.90
53782;DHT22;39692;53.114;7.060;2022-08-19T04:08:53;14.90;99.90
53782;DHT22;39692;53.114;7.060;2022-08-19T04:11:22;14.90;99.90
53782;DHT22;39692;53.114;7.060;2022-08-19T04:13:49;14.80;99.90
53782;DHT22;39692;53.114;7.060;2022-08-19T04:16:17;14.80;99.90
53782;DHT22;39692;53.114;7.060;2022-08-19T04:18:43;14.80;99.90
53782;DHT22;39692;53.114;7.060;2022-08-19T04:21:19;14.70;99.90
53782;DHT22;39692;53.114;7.060;2022-08-19T04:23:46;14.60;99.90
53782;DHT22;39692;53.114;7.060;2022-08-19T04:26:13;14.40;99.90
53782;DHT22;39692;53.114;7.060;2022-08-19T04:28:40;14.40;99.90
53782;DHT22;39692;53.114;7.060;2022-08-19T04:31:06;14.30;99.90
53782;DHT22;39692;53.114;7.060;2022-08-19T04:33:33;14.40;99.90
53782;DHT22;39692;53.114;7.060;2022-08-19T04:35:58;14.30;99.90
53782;DHT22;39692;53.114;7.060;2022-08-19T04:38:25;14.30;99.90
53782;DHT22;39692;53.114;7.060;2022-08-19T04:40:51;14.40;99.90
53782;DHT22;39692;53.114;7.060;2022-08-19T04:43:37;14.40;99.90
53782;DHT22;39692;53.114;7.060;2022-08-19T04:46:11;14.40;99.90
53782;DHT22;39692;53.114;7.060;2022-08-19T04:48:38;14.50;99.90
53782;DHT22;39692;53.114;7.060;2022-08-19T04:51:09;14.50;99.90
53782;DHT22;39692;53.114;7.060;2022-08-19T04:53:39;14.50;99.90
53782;DHT22;39692;53.114;7.060;2022-08-19T04:56:11;14.60;99.90
53782;DHT22;39692;53.114;7.060;2022-08-19T04:58:38;14.60;99.90
53782;DHT22;39692;53.114;7.060;2022-08-19T05:01:05;14.70;99.90
53782;DHT22;39692;53.114;7.060;2022-08-19T05:03:31;14.70;99.90
53782;DHT22;39692;53.114;7.060;2022-08-19T05:06:05;14.70;99.90
53782;DHT22;39692;53.114;7.060;2022-08-19T05:08:33;14.80;99.90
53782;DHT22;39692;53.114;7.060;2022-08-19T05:11:09;14.70;99.90
53782;DHT22;39692;53.114;7.060;2022-08-19T05:13:37;14.70;99.90
53782;DHT22;39692;53.114;7.060;2022-08-19T05:16:03;14.60;99.90
53782;DHT22;39692;53.114;7.060;2022-08-19T05:18:29;14.60;99.90
53782;DHT22;39692;53.114;7.060;2022-08-19T05:21:16;14.50;99.90
53782;DHT22;39692;53.114;7.060;2022-08-19T05:24:00;14.60;99.90
53782;DHT22;39692;53.114;7.060;2022-08-19T05:26:27;14.60;99.90
53782;DHT22;39692;53.114;7.060;2022-08-19T05:28:53;14.70;99.90
53782;DHT22;39692;53.114;7.060;2022-08-19T05:31:20;14.90;99.90
53782;DHT22;39692;53.114;7.060;2022-08-19T05:33:46;15.10;99.90
53782;DHT22;39692;53.114;7.060;2022-08-19T05:36:12;15.30;99.90
53782;DHT22;39692;53.114;7.060;2022-08-19T05:38:39;15.60;99.90
53782;DHT22;39692;53.114;7.060;2022-08-19T05:41:14;15.80;99.90
53782;DHT22;39692;53.114;7.060;2022-08-19T05:43:42;16.00;99.90
53782;DHT22;39692;53.114;7.060;2022-08-19T05:46:08;16.10;99.90
53782;DHT22;39692;53.114;7.060;2022-08-19T05:48:41;16.30;99.90
53782;DHT22;39692;53.114;7.060;2022-08-19T05:51:07;16.30;99.90
53782;DHT22;39692;53.114;7.060;2022-08-19T05:53:33;16.30;99.90
53782;DHT22;39692;53.114;7.060;2022-08-19T05:56:10;16.20;99.90
53782;DHT22;39692;53.114;7.060;2022-08-19T05:58:37;16.20;99.90
53782;DHT22;39692;53.114;7.060;2022-08-19T06:01:15;16.20;99.90
53782;DHT22;39692;53.114;7.060;2022-08-19T06:03:41;16.20;99.90
53782;DHT22;39692;53.114;7.060;2022-08-19T06:06:08;16.30;99.90
53782;DHT22;39692;53.114;7.060;2022-08-19T06:08:35;16.40;99.90
53782;DHT22;39692;53.114;7.060;2022-08-19T06:11:44;16.60;99.90
53782;DHT22;39692;53.114;7.060;2022-08-19T06:14:14;16.70;99.90
53782;DHT22;39692;53.114;7.060;2022-08-19T06:16:41;16.90;99.90
53782;DHT22;39692;53.114;7.060;2022-08-19T06:19:13;17.10;99.90
53782;DHT22;39692;53.114;7.060;2022-08-19T06:21:41;17.40;99.90
53782;DHT22;39692;53.114;7.060;2022-08-19T06:24:09;17.60;99.90
53782;DHT22;39692;53.114;7.060;2022-08-19T06:26:39;17.90;99.90
53782;DHT22;39692;53.114;7.060;2022-08-19T06:29:06;18.30;99.90
53782;DHT22;39692;53.114;7.060;2022-08-19T06:31:33;18.80;99.90
53782;DHT22;39692;53.114;7.060;2022-08-19T06:34:00;19.20;99.90
53782;DHT22;39692;53.114;7.060;2022-08-19T06:36:35;19.40;99.90
53782;DHT22;39692;53.114;7.060;2022-08-19T06:39:03;19.80;99.90
53782;DHT22;39692;53.114;7.060;2022-08-19T06:41:29;20.10;99.90
53782;DHT22;39692;53.114;7.060;2022-08-19T06:43:56;20.10;99.90
53782;DHT22;39692;53.114;7.060;2022-08-19T06:46:22;20.20;99.90
53782;DHT22;39692;53.114;7.060;2022-08-19T06:48:49;20.50;99.90
53782;DHT22;39692;53.114;7.060;2022-08-19T07:30:58;24.80;99.90
53782;DHT22;39692;53.114;7.060;2022-08-19T07:35:52;26.50;99.90
53782;DHT22;39692;53.114;7.060;2022-08-19T07:38:17;27.10;99.90
53782;DHT22;39692;53.114;7.060;2022-08-19T07:40:44;27.20;99.90
53782;DHT22;39692;53.114;7.060;2022-08-19T07:43:11;27.60;99.90
53782;DHT22;39692;53.114;7.060;2022-08-19T07:45:37;27.70;99.90
53782;DHT22;39692;53.114;7.060;2022-08-19T07:48:03;27.90;99.90
53782;DHT22;39692;53.114;7.060;2022-08-19T07:50:29;27.70;99.90
53782;DHT22;39692;53.114;7.060;2022-08-19T08:35:24;33.80;64.80
53782;DHT22;39692;53.114;7.060;2022-08-19T08:37:52;33.80;64.60
53782;DHT22;39692;53.114;7.060;2022-08-19T08:40:44;34.20;62.70
53782;DHT22;39692;53.114;7.060;2022-08-19T08:45:46;35.20;59.70
53782;DHT22;39692;53.114;7.060;2022-08-19T08:48:18;35.00;59.30
53782;DHT22;39692;53.114;7.060;2022-08-19T08:50:47;35.20;59.40
53782;DHT22;39692;53.114;7.060;2022-08-19T08:53:17;35.10;59.00
53782;DHT22;39692;53.114;7.060;2022-08-19T08:55:44;35.00;57.90
53782;DHT22;39692;53.114;7.060;2022-08-19T08:58:36;34.80;58.70
53782;DHT22;39692;53.114;7.060;2022-08-19T09:01:09;35.30;55.70
53782;DHT22;39692;53.114;7.060;2022-08-19T09:03:37;35.60;57.00
53782;DHT22;39692;53.114;7.060;2022-08-19T09:06:17;36.00;56.50
53782;DHT22;39692;53.114;7.060;2022-08-19T09:09:02;36.10;55.60
53782;DHT22;39692;53.114;7.060;2022-08-19T09:16:45;36.20;53.50
53782;DHT22;39692;53.114;7.060;2022-08-19T09:19:11;36.10;54.20
53782;DHT22;39692;53.114;7.060;2022-08-19T09:21:37;36.50;53.80
53782;DHT22;39692;53.114;7.060;2022-08-19T09:24:04;37.00;53.30
53782;DHT22;39692;53.114;7.060;2022-08-19T09:26:31;37.50;52.50
53782;DHT22;39692;53.114;7.060;2022-08-19T09:28:58;37.80;51.50
53782;DHT22;39692;53.114;7.060;2022-08-19T09:31:27;38.00;51.00
53782;DHT22;39692;53.114;7.060;2022-08-19T09:33:53;38.20;50.60
53782;DHT22;39692;53.114;7.060;2022-08-19T09:36:24;38.30;49.90
53782;DHT22;39692;53.114;7.060;2022-08-19T09:38:51;38.20;49.10
53782;DHT22;39692;53.114;7.060;2022-08-19T09:41:20;38.30;48.30
53782;DHT22;39692;53.114;7.060;2022-08-19T09:43:48;38.30;49.20
53782;DHT22;39692;53.114;7.060;2022-08-19T09:46:14;38.40;48.40
53782;DHT22;39692;53.114;7.060;2022-08-19T09:48:42;38.40;48.60
53782;DHT22;39692;53.114;7.060;2022-08-19T09:51:12;38.40;48.80
53782;DHT22;39692;53.114;7.060;2022-08-19T09:53:42;38.40;47.50
53782;DHT22;39692;53.114;7.060;2022-08-19T09:56:08;38.60;48.10
53782;DHT22;39692;53.114;7.060;2022-08-19T09:58:34;38.60;48.00
53782;DHT22;39692;53.114;7.060;2022-08-19T10:01:01;38.60;47.50
53782;DHT22;39692;53.114;7.060;2022-08-19T10:03:28;38.60;47.20
53782;DHT22;39692;53.114;7.060;2022-08-19T10:05:55;38.50;47.40
53782;DHT22;39692;53.114;7.060;2022-08-19T10:08:28;38.50;46.80
53782;DHT22;39692;53.114;7.060;2022-08-19T10:10:55;38.60;46.60
53782;DHT22;39692;53.114;7.060;2022-08-19T10:13:22;38.40;46.20
53782;DHT22;39692;53.114;7.060;2022-08-19T10:15:49;38.10;46.30
53782;DHT22;39692;53.114;7.060;2022-08-19T10:18:20;37.90;46.40
53782;DHT22;39692;53.114;7.060;2022-08-19T10:20:48;37.50;46.20
53782;DHT22;39692;53.114;7.060;2022-08-19T10:23:14;36.70;46.70
53782;DHT22;39692;53.114;7.060;2022-08-19T10:25:41;36.00;48.40
53782;DHT22;39692;53.114;7.060;2022-08-19T10:28:06;35.60;49.60
53782;DHT22;39692;53.114;7.060;2022-08-19T10:30:33;35.80;49.70
53782;DHT22;39692;53.114;7.060;2022-08-19T10:33:00;36.00;48.60
53782;DHT22;39692;53.114;7.060;2022-08-19T10:35:26;35.90;47.70
53782;DHT22;39692;53.114;7.060;2022-08-19T10:37:55;36.10;47.90
53782;DHT22;39692;53.114;7.060;2022-08-19T10:40:28;36.30;48.00
53782;DHT22;39692;53.114;7.060;2022-08-19T10:42:54;36.40;46.90
53782;DHT22;39692;53.114;7.060;2022-08-19T10:45:23;36.40;46.20
53782;DHT22;39692;53.114;7.060;2022-08-19T10:47:52;36.20;45.30
53782;DHT22;39692;53.114;7.060;2022-08-19T10:50:18;36.10;46.50
53782;DHT22;39692;53.114;7.060;2022-08-19T10:53:07;36.20;46.90
53782;DHT22;39692;53.114;7.060;2022-08-19T10:55:36;36.40;46.80
53782;DHT22;39692;53.114;7.060;2022-08-19T10:58:25;36.40;45.10
53782;DHT22;39692;53.114;7.060;2022-08-19T11:00:56;36.70;46.80
53782;DHT22;39692;53.114;7.060;2022-08-19T11:03:23;36.80;46.20
53782;DHT22;39692;53.114;7.060;2022-08-19T11:06:03;36.90;46.20
53782;DHT22;39692;53.114;7.060;2022-08-19T11:08:29;37.10;45.40
53782;DHT22;39692;53.114;7.060;2022-08-19T11:10:59;36.80;45.90
53782;DHT22;39692;53.114;7.060;2022-08-19T11:13:30;36.20;45.90
53782;DHT22;39692;53.114;7.060;2022-08-19T11:16:12;35.70;45.90
53782;DHT22;39692;53.114;7.060;2022-08-19T11:18:44;34.90;46.40
53782;DHT22;39692;53.114;7.060;2022-08-19T11:21:31;34.10;47.70
53782;DHT22;39692;53.114;7.060;2022-08-19T11:23:59;33.80;49.10
53782;DHT22;39692;53.114;7.060;2022-08-19T11:26:26;34.10;48.90
53782;DHT22;39692;53.114;7.060;2022-08-19T11:28:52;34.50;49.00
53782;DHT22;39692;53.114;7.060;2022-08-19T11:31:23;34.10;47.80
53782;DHT22;39692;53.114;7.060;2022-08-19T11:33:49;33.40;48.40
53782;DHT22;39692;53.114;7.060;2022-08-19T11:36:21;33.60;49.00
53782;DHT22;39692;53.114;7.060;2022-08-19T11:38:48;33.90;49.20
53782;DHT22;39692;53.114;7.060;2022-08-19T11:41:16;33.50;48.50
53782;DHT22;39692;53.114;7.060;2022-08-19T11:43:42;32.90;49.70
53782;DHT22;39692;53.114;7.060;2022-08-19T11:46:11;32.70;50.80
53782;DHT22;39692;53.114;7.060;2022-08-19T11:48:37;32.60;51.40
53782;DHT22;39692;53.114;7.060;2022-08-19T11:51:06;32.90;50.40
53782;DHT22;39692;53.114;7.060;2022-08-19T11:53:33;33.10;50.20
53782;DHT22;39692;53.114;7.060;2022-08-19T11:55:59;32.80;50.50
53782;DHT22;39692;53.114;7.060;2022-08-19T11:58:25;33.20;51.30
53782;DHT22;39692;53.114;7.060;2022-08-19T12:00:51;33.90;50.50
53782;DHT22;39692;53.114;7.060;2022-08-19T12:03:17;33.80;49.80
53782;DHT22;39692;53.114;7.060;2022-08-19T12:05:45;33.50;49.40
53782;DHT22;39692;53.114;7.060;2022-08-19T12:08:11;33.50;50.40
53782;DHT22;39692;53.114;7.060;2022-08-19T12:10:39;34.30;49.70
53782;DHT22;39692;53.114;7.060;2022-08-19T12:13:06;35.10;48.60
53782;DHT22;39692;53.114;7.060;2022-08-19T12:15:36;35.80;48.10
53782;DHT22;39692;53.114;7.060;2022-08-19T12:18:03;36.50;47.70
53782;DHT22;39692;53.114;7.060;2022-08-19T12:20:29;37.10;46.50
53782;DHT22;39692;53.114;7.060;2022-08-19T12:22:54;37.50;45.10
53782;DHT22;39692;53.114;7.060;2022-08-19T12:25:20;37.50;45.20
53782;DHT22;39692;53.114;7.060;2022-08-19T12:27:46;37.00;45.90
53782;DHT22;39692;53.114;7.060;2022-08-19T12:30:13;37.00;45.60
53782;DHT22;39692;53.114;7.060;2022-08-19T12:35:06;37.80;44.60
53782;DHT22;39692;53.114;7.060;2022-08-19T12:37:32;38.20;44.90
53782;DHT22;39692;53.114;7.060;2022-08-19T12:39:58;38.40;44.30
53782;DHT22;39692;53.114;7.060;2022-08-19T12:42:24;37.90;44.80
53782;DHT22;39692;53.114;7.060;2022-08-19T12:44:49;36.70;44.50
53782;DHT22;39692;53.114;7.060;2022-08-19T12:47:17;35.40;46.30
53782;DHT22;39692;53.114;7.060;2022-08-19T12:49:43;34.40;47.90
53782;DHT22;39692;53.114;7.060;2022-08-19T12:52:10;33.40;48.90
53782;DHT22;39692;53.114;7.060;2022-08-19T12:54:37;32.60;50.00
53782;DHT22;39692;53.114;7.060;2022-08-19T12:57:07;31.80;51.00
53782;DHT22;39692;53.114;7.060;2022-08-19T12:59:34;31.40;52.40
53782;DHT22;39692;53.114;7.060;2022-08-19T13:02:06;31.40;53.30
53782;DHT22;39692;53.114;7.060;2022-08-19T13:04:33;31.30;52.80
53782;DHT22;39692;53.114;7.060;2022-08-19T13:07:06;31.20;53.00
53782;DHT22;39692;53.114;7.060;2022-08-19T13:09:33;31.00;54.20
53782;DHT22;39692;53.114;7.060;2022-08-19T13:11:59;30.60;54.00
53782;DHT22;39692;53.114;7.060;2022-08-19T13:14:27;30.20;55.30
53782;DHT22;39692;53.114;7.060;2022-08-19T13:16:54;30.00;56.10
53782;DHT22;39692;53.114;7.060;2022-08-19T13:19:19;30.10;56.70
53782;DHT22;39692;53.114;7.060;2022-08-19T13:21:50;30.20;56.10
53782;DHT22;39692;53.114;7.060;2022-08-19T13:24:15;30.00;55.10
53782;DHT22;39692;53.114;7.060;2022-08-19T13:26:41;29.70;56.00
53782;DHT22;39692;53.114;7.060;2022-08-19T13:29:06;29.20;56.00
53782;DHT22;39692;53.114;7.060;2022-08-19T13:31:50;28.80;57.00
53782;DHT22;39692;53.114;7.060;2022-08-19T13:34:35;28.40;58.70
53782;DHT22;39692;53.114;7.060;2022-08-19T13:37:03;28.20;60.50
53782;DHT22;39692;53.114;7.060;2022-08-19T13:39:31;28.10;61.80
53782;DHT22;39692;53.114;7.060;2022-08-19T13:41:58;28.10;62.10
53782;DHT22;39692;53.114;7.060;2022-08-19T13:44:27;27.90;62.30
53782;DHT22;39692;53.114;7.060;2022-08-19T13:47:05;27.80;63.90
53782;DHT22;39692;53.114;7.060;2022-08-19T13:49:33;27.80;65.30
53782;DHT22;39692;53.114;7.060;2022-08-19T13:51:58;27.70;65.90
53782;DHT22;39692;53.114;7.060;2022-08-19T13:54:24;27.80;66.60
53782;DHT22;39692;53.114;7.060;2022-08-19T13:56:50;27.80;66.00
53782;DHT22;39692;53.114;7.060;2022-08-19T13:59:16;27.80;65.80
53782;DHT22;39692;53.114;7.060;2022-08-19T14:01:42;27.90;67.00
53782;DHT22;39692;53.114;7.060;2022-08-19T14:04:08;28.10;67.80
53782;DHT22;39692;53.114;7.060;2022-08-19T14:06:35;28.50;66.70
53782;DHT22;39692;53.114;7.060;2022-08-19T14:09:00;28.80;65.80
53782;DHT22;39692;53.114;7.060;2022-08-19T14:11:28;29.30;65.30
53782;DHT22;39692;53.114;7.060;2022-08-19T14:13:53;29.60;63.40
53782;DHT22;39692;53.114;7.060;2022-08-19T14:16:19;29.80;62.20
53782;DHT22;39692;53.114;7.060;2022-08-19T14:18:47;29.90;61.60
53782;DHT22;39692;53.114;7.060;2022-08-19T14:21:19;30.10;61.30
53782;DHT22;39692;53.114;7.060;2022-08-19T14:23:46;30.10;61.70
53782;DHT22;39692;53.114;7.060;2022-08-19T14:26:15;30.00;60.90
53782;DHT22;39692;53.114;7.060;2022-08-19T14:28:43;29.80;61.50
53782;DHT22;39692;53.114;7.060;2022-08-19T14:31:13;29.60;62.00
53782;DHT22;39692;53.114;7.060;2022-08-19T14:33:42;29.50;62.40
53782;DHT22;39692;53.114;7.060;2022-08-19T14:36:08;29.40;63.00
53782;DHT22;39692;53.114;7.060;2022-08-19T14:38:34;29.40;62.80
53782;DHT22;39692;53.114;7.060;2022-08-19T14:41:15;29.40;62.40
53782;DHT22;39692;53.114;7.060;2022-08-19T14:43:43;29.30;61.70
53782;DHT22;39692;53.114;7.060;2022-08-19T14:46:15;29.20;62.70
53782;DHT22;39692;53.114;7.060;2022-08-19T14:48:41;28.90;65.10
53782;DHT22;39692;53.114;7.060;2022-08-19T14:51:08;28.60;68.50
53782;DHT22;39692;53.114;7.060;2022-08-19T14:53:34;28.10;72.60
53782;DHT22;39692;53.114;7.060;2022-08-19T14:56:00;27.80;76.50
53782;DHT22;39692;53.114;7.060;2022-08-19T14:58:27;27.60;82.10
53782;DHT22;39692;53.114;7.060;2022-08-19T15:00:53;27.40;89.50
53782;DHT22;39692;53.114;7.060;2022-08-19T15:03:19;27.30;92.80
53782;DHT22;39692;53.114;7.060;2022-08-19T15:05:44;27.20;93.70
53782;DHT22;39692;53.114;7.060;2022-08-19T15:08:10;27.10;93.90
53782;DHT22;39692;53.114;7.060;2022-08-19T15:10:38;27.00;96.50
53782;DHT22;39692;53.114;7.060;2022-08-19T15:13:04;27.00;98.30
53782;DHT22;39692;53.114;7.060;2022-08-19T15:15:31;26.90;99.90
53782;DHT22;39692;53.114;7.060;2022-08-19T15:17:56;26.90;99.90
53782;DHT22;39692;53.114;7.060;2022-08-19T15:20:28;27.00;99.90
53782;DHT22;39692;53.114;7.060;2022-08-19T15:22:54;27.00;99.90
53782;DHT22;39692;53.114;7.060;2022-08-19T15:25:20;27.10;99.90
53782;DHT22;39692;53.114;7.060;2022-08-19T15:27:46;27.10;99.90
53782;DHT22;39692;53.114;7.060;2022-08-19T15:30:22;27.20;99.90
53782;DHT22;39692;53.114;7.060;2022-08-19T15:32:48;27.20;99.90
53782;DHT22;39692;53.114;7.060;2022-08-19T15:35:14;27.20;99.30
53782;DHT22;39692;53.114;7.060;2022-08-19T15:37:40;27.10;99.50
53782;DHT22;39692;53.114;7.060;2022-08-19T15:40:06;27.00;99.90
53782;DHT22;39692;53.114;7.060;2022-08-19T15:42:35;26.90;99.90
53782;DHT22;39692;53.114;7.060;2022-08-19T15:45:03;26.80;99.90
53782;DHT22;39692;53.114;7.060;2022-08-19T15:47:29;26.70;99.90
53782;DHT22;39692;53.114;7.060;2022-08-19T15:49:55;26.60;99.90
53782;DHT22;39692;53.114;7.060;2022-08-19T15:52:21;26.40;99.90
53782;DHT22;39692;53.114;7.060;2022-08-19T15:54:46;26.20;99.90
53782;DHT22;39692;53.114;7.060;2022-08-19T15:57:12;26.10;99.90
53782;DHT22;39692;53.114;7.060;2022-08-19T15:59:47;26.00;99.90
53782;DHT22;39692;53.114;7.060;2022-08-19T16:02:32;25.80;99.90
53782;DHT22;39692;53.114;7.060;2022-08-19T16:05:21;25.70;99.90
53782;DHT22;39692;53.114;7.060;2022-08-19T16:08:06;25.60;99.90
53782;DHT22;39692;53.114;7.060;2022-08-19T16:10:33;25.50;99.90
53782;DHT22;39692;53.114;7.060;2022-08-19T16:12:59;25.40;99.90
53782;DHT22;39692;53.114;7.060;2022-08-19T16:15:27;25.30;99.90
53782;DHT22;39692;53.114;7.060;2022-08-19T16:17:54;25.20;99.90
53782;DHT22;39692;53.114;7.060;2022-08-19T16:20:20;25.10;99.90
53782;DHT22;39692;53.114;7.060;2022-08-19T16:22:47;25.10;99.90
53782;DHT22;39692;53.114;7.060;2022-08-19T16:25:13;25.00;99.90
53782;DHT22;39692;53.114;7.060;2022-08-19T16:27:40;25.00;99.90
53782;DHT22;39692;53.114;7.060;2022-08-19T16:30:06;25.00;99.90
53782;DHT22;39692;53.114;7.060;2022-08-19T16:32:33;24.90;99.90
53782;DHT22;39692;53.114;7.060;2022-08-19T16:34:58;24.90;99.90
53782;DHT22;39692;53.114;7.060;2022-08-19T16:37:28;24.80;99.90
53782;DHT22;39692;53.114;7.060;2022-08-19T16:39:54;24.80;99.90
53782;DHT22;39692;53.114;7.060;2022-08-19T16:42:20;24.80;99.90
53782;DHT22;39692;53.114;7.060;2022-08-19T16:44:47;24.80;99.90
53782;DHT22;39692;53.114;7.060;2022-08-19T16:47:13;24.80;99.90
53782;DHT22;39692;53.114;7.060;2022-08-19T16:49:41;24.80;99.90
53782;DHT22;39692;53.114;7.060;2022-08-19T16:52:07;24.80;99.90
53782;DHT22;39692;53.114;7.060;2022-08-19T16:54:37;24.80;99.90
53782;DHT22;39692;53.114;7.060;2022-08-19T16:57:04;24.80;99.90
53782;DHT22;39692;53.114;7.060;2022-08-19T16:59:32;24.80;99.90
53782;DHT22;39692;53.114;7.060;2022-08-19T17:01:58;24.80;99.90
53782;DHT22;39692;53.114;7.060;2022-08-19T17:04:24;24.70;99.90
53782;DHT22;39692;53.114;7.060;2022-08-19T17:06:50;24.70;99.90
53782;DHT22;39692;53.114;7.060;2022-08-19T17:09:16;24.70;99.90
53782;DHT22;39692;53.114;7.060;2022-08-19T17:11:43;24.70;99.90
53782;DHT22;39692;53.114;7.060;2022-08-19T17:14:08;24.60;99.90
53782;DHT22;39692;53.114;7.060;2022-08-19T17:16:35;24.60;99.90
53782;DHT22;39692;53.114;7.060;2022-08-19T17:19:04;24.60;99.90
53782;DHT22;39692;53.114;7.060;2022-08-19T17:21:31;24.60;99.90
53782;DHT22;39692;53.114;7.060;2022-08-19T17:24:02;24.60;99.90
53782;DHT22;39692;53.114;7.060;2022-08-19T17:26:29;24.60;99.90
53782;DHT22;39692;53.114;7.060;2022-08-19T17:28:56;24.50;99.90
53782;DHT22;39692;53.114;7.060;2022-08-19T17:31:24;24.50;99.90
53782;DHT22;39692;53.114;7.060;2022-08-19T17:33:50;24.50;99.90
53782;DHT22;39692;53.114;7.060;2022-08-19T17:36:17;24.50;99.90
53782;DHT22;39692;53.114;7.060;2022-08-19T17:38:44;24.50;99.90
53782;DHT22;39692;53.114;7.060;2022-08-19T17:41:09;24.40;99.90
53782;DHT22;39692;53.114;7.060;2022-08-19T17:43:35;24.50;99.90
53782;DHT22;39692;53.114;7.060;2022-08-19T17:46:02;24.50;99.90
53782;DHT22;39692;53.114;7.060;2022-08-19T17:48:33;24.50;99.90